EKAH/AAR METAR and TAF weather

Enter ICAO airport designator
Station Type Date Time Source
EKAH METAR 2018/01/24 07:20 UTC NOAA

EKAH 240720Z AUTO 20005KT 160V250 9999NDV FEW160/// 06/05 Q1006


Station Type Date Time Source
EKAH Decoded METAR 2018/01/24 07:20 UTC NOAA

Tirstrup, Denmark (EKAH) 56-18N 010-37E 25M
Jan 24, 2018 - 02:20 AM EST / 2018.01.24 0720 UTC
Wind: from the SSW (200 degrees) at 6 MPH (5 KT) (direction variable):0
Sky conditions: mostly clear
Temperature: 42 F (6 C)
Dew Point: 41 F (5 C)
Relative Humidity: 93%
Pressure (altimeter): 29.71 in. Hg (1006 hPa)
ob: EKAH 240720Z AUTO 20005KT 160V250 9999NDV FEW160/// 06/05 Q1006
cycle: 7

Station Type Date Time Source
EKAH TAF 2018/01/24 06:15 UTC NOAA

TAF TAF EKAH 240503Z 2406/2506 20010KT 6000 BKN015
TEMPO 2406/2413 1200 RADZ BR BKN002
BECMG 2409/2412 20020KT
TEMPO 2413/2418 4000 BR RADZ BKN008
BECMG 2418/2421 20015KT


Example: see airport list